Time;durP1;ratioP1;P1;durP2;ratioP2;P2;SDS_P1;SDS_P2;PMS_P1;PMS_P2;Temp;Humidity;BMP_temperature;BMP_pressure;BME280_temperature;BME280_humidity;BME280_pressure;Samples;Min_cycle;Max_cycle;Signal;HPM_P1;HPM_P2
2023/10/21 00:01:20;;;;;;;40.97;26.93;;;8.50;99.90;;;;;;8360243;28;20205;-66
2023/10/21 00:05:21;;;;;;;42.40;27.37;;;8.50;99.90;;;;;;8370049;28;20194;-65
2023/10/21 00:09:22;;;;;;;36.00;23.77;;;8.50;99.90;;;;;;8362919;28;20186;-66
2023/10/21 00:13:23;;;;;;;34.53;24.90;;;8.60;99.90;;;;;;8369061;28;20202;-66
2023/10/21 00:17:26;;;;;;;36.17;23.10;;;8.60;99.90;;;;;;8366731;28;20191;-66
2023/10/21 00:21:29;;;;;;;31.17;21.40;;;8.60;99.90;;;;;;8364083;28;20192;-65
2023/10/21 00:25:30;;;;;;;27.93;18.97;;;8.60;99.90;;;;;;8369714;28;20475;-66
2023/10/21 00:29:30;;;;;;;29.10;19.43;;;8.60;99.90;;;;;;8380561;28;20173;-66
2023/10/21 00:33:32;;;;;;;33.47;22.03;;;8.70;99.90;;;;;;8380246;28;20246;-65
2023/10/21 00:37:35;;;;;;;32.40;22.17;;;8.70;99.90;;;;;;8371231;28;20190;-66
2023/10/21 00:41:37;;;;;;;28.83;20.60;;;8.70;99.90;;;;;;8365636;28;20182;-66
2023/10/21 00:45:38;;;;;;;36.53;24.40;;;8.70;99.90;;;;;;8375887;28;20179;-64
2023/10/21 00:49:38;;;;;;;47.47;29.10;;;8.70;99.90;;;;;;8370850;28;20234;-66
2023/10/21 00:53:40;;;;;;;47.30;30.27;;;8.70;99.90;;;;;;8366676;28;20207;-65
2023/10/21 00:57:42;;;;;;;36.43;25.07;;;8.70;99.90;;;;;;8362614;28;20261;-65
2023/10/21 01:01:43;;;;;;;38.40;25.87;;;8.70;99.90;;;;;;8365665;28;20210;-65
2023/10/21 01:05:44;;;;;;;39.67;23.57;;;8.60;99.90;;;;;;8357439;28;20298;-62
2023/10/21 01:09:45;;;;;;;32.47;22.03;;;8.60;99.90;;;;;;8359326;28;20544;-59
2023/10/21 01:13:48;;;;;;;38.63;23.33;;;8.60;99.90;;;;;;8362091;28;20222;-62
2023/10/21 01:17:50;;;;;;;41.87;26.10;;;8.60;99.90;;;;;;8361067;28;20458;-61
2023/10/21 01:21:51;;;;;;;36.33;23.17;;;8.50;99.90;;;;;;8358891;28;20207;-61
2023/10/21 01:25:52;;;;;;;33.70;21.27;;;8.50;99.90;;;;;;8354930;28;20502;-62
2023/10/21 01:29:52;;;;;;;33.17;21.20;;;8.50;99.90;;;;;;8358533;28;20180;-62
2023/10/21 01:33:53;;;;;;;32.00;21.00;;;8.50;99.90;;;;;;8362237;28;20217;-61
2023/10/21 01:37:54;;;;;;;31.60;22.00;;;8.60;99.90;;;;;;8357790;28;20428;-62
2023/10/21 01:41:55;;;;;;;38.57;23.53;;;8.50;99.90;;;;;;8366333;28;20180;-62
2023/10/21 01:45:55;;;;;;;34.50;23.70;;;8.50;99.90;;;;;;8357939;28;20234;-62
2023/10/21 01:49:57;;;;;;;42.70;24.47;;;8.50;99.90;;;;;;8364676;28;20587;-62
2023/10/21 01:53:58;;;;;;;43.63;27.00;;;8.50;99.90;;;;;;8357698;28;20262;-61
2023/10/21 01:57:59;;;;;;;34.73;23.47;;;8.50;99.90;;;;;;8354530;28;20182;-62
2023/10/21 02:02:00;;;;;;;40.00;23.87;;;8.50;99.90;;;;;;8361982;28;20204;-61
2023/10/21 02:06:06;;;;;;;35.93;23.83;;;8.50;99.90;;;;;;8357578;28;20183;-62
2023/10/21 02:10:07;;;;;;;45.17;27.33;;;8.50;99.90;;;;;;8359840;28;20214;-61
2023/10/21 02:14:08;;;;;;;38.50;24.57;;;8.50;99.90;;;;;;8363253;28;20257;-66
2023/10/21 02:18:10;;;;;;;36.03;23.67;;;8.50;99.90;;;;;;8367144;28;20178;-65
2023/10/21 02:22:11;;;;;;;33.63;21.57;;;8.50;99.90;;;;;;8369409;28;20186;-62
2023/10/21 02:26:11;;;;;;;40.80;25.10;;;8.50;99.90;;;;;;8357071;28;20255;-61
2023/10/21 02:30:15;;;;;;;36.33;22.73;;;8.50;99.90;;;;;;8359897;28;20470;-63
2023/10/21 02:34:15;;;;;;;40.33;24.90;;;8.50;99.90;;;;;;8359770;28;20209;-61
2023/10/21 02:38:16;;;;;;;33.80;22.90;;;8.50;99.90;;;;;;8361307;28;20302;-63
2023/10/21 02:42:17;;;;;;;34.67;23.40;;;8.50;99.90;;;;;;8358867;28;20190;-62
2023/10/21 02:46:18;;;;;;;37.60;24.37;;;8.50;99.90;;;;;;8363818;28;20260;-62
2023/10/21 02:50:19;;;;;;;41.10;25.13;;;8.50;99.90;;;;;;8360584;28;20191;-62
2023/10/21 02:54:20;;;;;;;37.17;24.30;;;8.50;99.90;;;;;;8354033;28;20226;-61
2023/10/21 02:58:21;;;;;;;41.60;25.97;;;8.50;99.90;;;;;;8360719;28;20187;-61
2023/10/21 03:02:21;;;;;;;39.43;25.40;;;8.50;99.90;;;;;;8359129;28;20213;-61
2023/10/21 03:06:22;;;;;;;40.03;25.70;;;8.50;99.90;;;;;;8357204;28;20259;-62
2023/10/21 03:10:23;;;;;;;40.00;24.77;;;8.50;99.90;;;;;;8356925;28;20195;-63
2023/10/21 03:14:23;;;;;;;38.70;24.17;;;8.40;99.90;;;;;;8355776;28;20304;-61
2023/10/21 03:18:25;;;;;;;35.47;22.77;;;8.40;99.90;;;;;;8357440;28;20190;-61
2023/10/21 03:22:25;;;;;;;41.47;28.07;;;8.40;99.90;;;;;;8356404;28;20284;-61
2023/10/21 03:26:26;;;;;;;34.30;23.97;;;8.50;99.90;;;;;;8354957;28;20187;-61
2023/10/21 03:30:28;;;;;;;30.23;20.17;;;8.40;99.90;;;;;;8362979;28;20332;-63
2023/10/21 03:34:29;;;;;;;28.20;19.93;;;8.50;99.90;;;;;;8356264;28;20225;-63
2023/10/21 03:38:30;;;;;;;29.83;21.13;;;8.40;99.90;;;;;;8356302;28;20246;-63
2023/10/21 03:42:31;;;;;;;27.93;19.77;;;8.40;99.90;;;;;;8356030;28;20213;-63
2023/10/21 03:46:32;;;;;;;34.53;22.53;;;8.50;99.90;;;;;;8357801;28;20275;-63
2023/10/21 03:50:33;;;;;;;36.17;22.00;;;8.40;99.90;;;;;;8353770;28;20277;-61
2023/10/21 03:54:33;;;;;;;31.03;20.40;;;8.40;99.90;;;;;;8354421;28;20251;-61
2023/10/21 03:58:34;;;;;;;27.40;19.93;;;8.40;99.90;;;;;;8355026;28;20182;-63
2023/10/21 04:02:35;;;;;;;29.17;19.33;;;8.40;99.90;;;;;;8357649;28;20201;-63
2023/10/21 04:06:36;;;;;;;27.67;19.70;;;8.40;99.90;;;;;;8358288;28;20552;-63
2023/10/21 04:10:37;;;;;;;23.53;18.43;;;8.40;99.90;;;;;;8352614;28;20182;-62
2023/10/21 04:14:38;;;;;;;24.07;17.33;;;8.40;99.90;;;;;;8352244;28;20215;-64
2023/10/21 04:18:38;;;;;;;21.67;16.67;;;8.40;99.90;;;;;;8356223;28;20187;-63
2023/10/21 04:22:40;;;;;;;23.90;17.43;;;8.40;99.90;;;;;;8351970;28;20185;-63
2023/10/21 04:26:40;;;;;;;20.80;16.30;;;8.40;99.90;;;;;;8350773;28;20186;-63
2023/10/21 04:30:44;;;;;;;19.57;16.50;;;8.40;99.90;;;;;;8355600;28;20202;-62
2023/10/21 04:34:45;;;;;;;19.30;15.53;;;8.40;99.90;;;;;;8358398;28;20241;-62
2023/10/21 04:38:45;;;;;;;20.70;16.43;;;8.50;99.90;;;;;;8357260;28;20216;-61
2023/10/21 04:42:47;;;;;;;26.37;17.93;;;8.50;99.90;;;;;;8352299;28;20189;-62
2023/10/21 04:46:48;;;;;;;22.93;16.00;;;8.40;99.90;;;;;;8359818;28;20221;-62
2023/10/21 04:50:48;;;;;;;21.60;16.60;;;8.40;99.90;;;;;;8351763;28;20243;-63
2023/10/21 04:54:50;;;;;;;20.00;15.50;;;8.40;99.90;;;;;;8351458;28;20215;-61
2023/10/21 04:58:51;;;;;;;19.20;14.77;;;8.40;99.90;;;;;;8354061;28;20729;-63
2023/10/21 05:02:51;;;;;;;19.10;15.67;;;8.40;99.90;;;;;;8353188;28;20494;-64
2023/10/21 05:06:52;;;;;;;19.30;16.10;;;8.40;99.90;;;;;;8348458;28;20590;-63
2023/10/21 05:10:53;;;;;;;20.47;16.53;;;8.40;99.90;;;;;;8356106;28;20262;-63
2023/10/21 05:14:54;;;;;;;18.97;15.63;;;8.30;99.90;;;;;;8351295;28;20230;-61
2023/10/21 05:18:54;;;;;;;23.87;16.90;;;8.30;99.90;;;;;;8361769;28;20184;-63
2023/10/21 05:22:55;;;;;;;21.10;16.50;;;8.30;99.90;;;;;;8359214;28;20186;-63
2023/10/21 05:26:56;;;;;;;19.20;15.37;;;8.20;99.90;;;;;;8368359;28;20608;-63
2023/10/21 05:30:57;;;;;;;20.87;17.17;;;8.20;99.90;;;;;;8361468;28;20182;-62
2023/10/21 05:34:58;;;;;;;21.93;17.83;;;8.10;99.90;;;;;;8358173;28;20213;-63
2023/10/21 05:38:59;;;;;;;23.63;18.17;;;8.10;99.90;;;;;;8358729;28;20182;-61
2023/10/21 05:43:00;;;;;;;21.97;18.43;;;8.10;99.90;;;;;;8356751;28;20190;-61
2023/10/21 05:47:04;;;;;;;20.47;16.37;;;8.00;99.90;;;;;;8360288;28;20178;-61
2023/10/21 05:51:05;;;;;;;20.00;15.63;;;8.00;99.90;;;;;;8357248;28;20181;-63
2023/10/21 05:55:08;;;;;;;22.60;17.93;;;8.00;99.90;;;;;;8357281;28;20280;-68
2023/10/21 05:59:09;;;;;;;19.90;15.33;;;8.10;99.90;;;;;;8361419;28;20208;-69
2023/10/21 06:03:10;;;;;;;16.97;14.50;;;8.10;99.90;;;;;;8363667;28;20186;-68
2023/10/21 06:07:10;;;;;;;17.47;14.47;;;8.10;99.90;;;;;;8356594;28;20196;-68
2023/10/21 06:11:12;;;;;;;17.30;14.13;;;8.10;99.90;;;;;;8356214;28;20217;-67
2023/10/21 06:15:13;;;;;;;15.83;14.13;;;8.10;99.90;;;;;;8357544;28;20203;-67
2023/10/21 06:19:16;;;;;;;24.70;16.43;;;8.10;99.90;;;;;;8361894;28;20182;-68
2023/10/21 06:23:17;;;;;;;17.30;14.53;;;8.20;99.90;;;;;;8355789;28;20202;-68
2023/10/21 06:27:18;;;;;;;15.43;13.80;;;8.30;99.90;;;;;;8363603;28;20197;-67
2023/10/21 06:31:19;;;;;;;17.47;14.70;;;8.40;99.90;;;;;;8360616;28;20222;-68
2023/10/21 06:35:22;;;;;;;25.27;19.73;;;8.40;99.90;;;;;;8355950;28;20242;-68
2023/10/21 06:39:22;;;;;;;33.33;26.63;;;8.50;99.90;;;;;;8356543;28;20178;-68
2023/10/21 06:43:24;;;;;;;24.63;19.37;;;8.50;99.90;;;;;;8352865;28;20197;-69
2023/10/21 06:47:25;;;;;;;17.30;15.37;;;8.50;99.90;;;;;;8356456;28;20203;-68
2023/10/21 06:51:26;;;;;;;25.53;18.20;;;8.40;99.90;;;;;;8359508;28;20240;-69
2023/10/21 06:55:28;;;;;;;17.50;14.90;;;8.30;99.90;;;;;;8363077;28;20214;-68
2023/10/21 06:59:32;;;;;;;27.83;20.77;;;8.30;99.90;;;;;;8367531;28;20210;-68
2023/10/21 07:03:33;;;;;;;31.40;23.60;;;8.40;99.90;;;;;;8356774;28;20217;-69
2023/10/21 07:07:40;;;;;;;43.67;27.57;;;8.50;99.90;;;;;;8361228;28;20270;-69
2023/10/21 07:11:41;;;;;;;42.83;30.30;;;8.70;99.90;;;;;;8360129;28;20305;-67
2023/10/21 07:15:41;;;;;;;34.77;26.57;;;8.80;99.90;;;;;;8356267;28;20229;-68
2023/10/21 07:19:42;;;;;;;31.93;25.27;;;9.00;99.90;;;;;;8353425;28;20211;-67
2023/10/21 07:23:43;;;;;;;65.17;41.33;;;9.20;99.90;;;;;;8362350;28;20186;-68
2023/10/21 07:27:47;;;;;;;45.37;34.07;;;9.30;99.90;;;;;;8361950;28;20536;-68
2023/10/21 07:31:48;;;;;;;46.20;32.83;;;9.50;99.90;;;;;;8355166;28;20198;-69
2023/10/21 07:35:53;;;;;;;37.53;29.20;;;9.70;99.90;;;;;;8360060;28;20248;-68
2023/10/21 07:39:54;;;;;;;45.53;32.67;;;10.00;99.90;;;;;;8352954;28;20211;-70
2023/10/21 07:43:55;;;;;;;46.97;33.43;;;10.30;99.90;;;;;;8355018;28;20200;-71
2023/10/21 07:47:57;;;;;;;43.20;33.37;;;10.60;99.90;;;;;;8357896;28;20200;-67
2023/10/21 07:51:58;;;;;;;37.83;26.63;;;10.80;99.90;;;;;;8360991;28;20185;-68
2023/10/21 07:55:59;;;;;;;63.37;53.90;;;11.20;99.90;;;;;;8352980;28;20358;-68
2023/10/21 08:00:00;;;;;;;47.57;41.77;;;11.50;99.90;;;;;;8355681;28;20332;-68
2023/10/21 08:04:01;;;;;;;46.07;38.97;;;11.80;99.90;;;;;;8354847;28;20547;-68
2023/10/21 08:08:03;;;;;;;36.77;30.47;;;12.10;99.90;;;;;;8358651;28;20249;-70
2023/10/21 08:12:04;;;;;;;27.60;21.70;;;12.50;99.90;;;;;;8359012;28;20509;-71
2023/10/21 08:16:05;;;;;;;17.70;15.53;;;12.90;99.90;;;;;;8357192;28;20215;-70
2023/10/21 08:20:07;;;;;;;14.13;11.57;;;13.20;99.90;;;;;;8354251;28;20181;-68
2023/10/21 08:24:08;;;;;;;10.73;9.63;;;13.60;99.90;;;;;;8354423;28;20188;-70
2023/10/21 08:28:11;;;;;;;11.13;8.90;;;13.90;99.90;;;;;;8358050;28;20180;-69
2023/10/21 08:32:14;;;;;;;8.67;7.30;;;14.20;99.90;;;;;;8360324;28;20188;-66
2023/10/21 08:36:18;;;;;;;12.40;8.63;;;14.50;99.90;;;;;;8356231;28;20218;-64
2023/10/21 08:40:19;;;;;;;8.90;7.93;;;14.70;99.90;;;;;;8351377;28;20189;-63
2023/10/21 08:44:20;;;;;;;8.00;7.07;;;14.90;99.90;;;;;;8351806;28;20190;-64
2023/10/21 08:48:23;;;;;;;9.63;7.63;;;15.10;99.90;;;;;;8359091;28;20263;-64
2023/10/21 08:52:25;;;;;;;7.73;6.63;;;15.30;99.90;;;;;;8348349;28;20444;-61
2023/10/21 08:56:29;;;;;;;6.60;5.77;;;15.50;99.90;;;;;;8359904;28;20198;-62
2023/10/21 09:00:30;;;;;;;5.97;5.37;;;15.60;99.90;;;;;;8364058;28;20205;-62
2023/10/21 09:04:35;;;;;;;7.87;5.70;;;15.80;99.90;;;;;;8357055;28;20197;-63
2023/10/21 09:08:36;;;;;;;5.00;4.50;;;15.90;99.90;;;;;;8357032;28;20212;-62
2023/10/21 09:12:38;;;;;;;5.97;4.80;;;16.10;99.90;;;;;;8358745;28;20448;-64
2023/10/21 09:16:38;;;;;;;4.40;3.90;;;16.20;99.90;;;;;;8365086;28;20182;-62
2023/10/21 09:20:39;;;;;;;3.70;3.40;;;16.40;99.90;;;;;;8360509;28;20193;-66
2023/10/21 09:24:40;;;;;;;5.57;3.30;;;16.50;99.90;;;;;;8361024;28;20240;-64
2023/10/21 09:28:41;;;;;;;3.30;3.00;;;16.70;99.90;;;;;;8367299;28;20263;-68
2023/10/21 09:32:43;;;;;;;5.10;3.30;;;16.90;99.90;;;;;;8362699;28;20210;-65
2023/10/21 09:36:44;;;;;;;5.50;3.27;;;17.10;99.90;;;;;;8359848;28;20177;-66
2023/10/21 09:40:45;;;;;;;3.60;2.97;;;17.30;99.90;;;;;;8359400;28;20220;-66
2023/10/21 09:44:47;;;;;;;4.03;3.23;;;17.50;99.90;;;;;;8356337;28;20196;-66
2023/10/21 09:48:52;;;;;;;3.63;2.80;;;17.60;99.90;;;;;;8359058;28;20431;-66
2023/10/21 09:53:05;;;;;;;2.47;2.20;;;17.70;99.90;;;;;;8363525;28;20229;-69
2023/10/21 09:57:09;;;;;;;3.70;2.70;;;17.80;71.90;;;;;;8374520;28;20197;-66
2023/10/21 10:01:13;;;;;;;2.20;2.00;;;17.90;1.00;;;;;;8364579;28;20673;-67
2023/10/21 10:05:15;;;;;;;2.03;1.90;;;18.00;1.00;;;;;;8356951;28;20562;-67
2023/10/21 10:09:16;;;;;;;2.40;2.10;;;18.10;1.00;;;;;;8354222;28;20204;-68
2023/10/21 10:13:19;;;;;;;2.70;1.80;;;18.20;1.00;;;;;;8375688;28;20217;-67
2023/10/21 10:17:49;;;;;;;2.23;2.03;;;18.40;1.00;;;;;;8389698;27;20743;-71
2023/10/21 10:21:52;;;;;;;2.83;1.77;;;18.40;1.00;;;;;;8356835;28;20208;-64
2023/10/21 10:25:57;;;;;;;1.63;1.47;;;18.60;1.00;;;;;;8362473;28;20200;-68
2023/10/21 10:29:59;;;;;;;1.90;1.60;;;18.70;1.00;;;;;;8355243;28;20189;-69
2023/10/21 10:34:00;;;;;;;3.43;1.80;;;18.70;1.00;;;;;;8373224;28;20248;-66
2023/10/21 10:38:02;;;;;;;1.30;1.20;;;18.80;1.00;;;;;;8354720;28;20186;-68
2023/10/21 10:42:03;;;;;;;1.93;1.50;;;18.80;1.00;;;;;;8357392;28;20177;-70
2023/10/21 10:46:05;;;;;;;3.63;1.73;;;18.90;1.00;;;;;;8356921;28;20242;-68
2023/10/21 10:50:14;;;;;;;1.53;1.23;;;19.00;1.00;;;;;;8360005;28;20198;-70
2023/10/21 10:54:18;;;;;;;2.37;1.20;;;19.10;1.00;;;;;;8354423;28;20213;-67
2023/10/21 10:58:19;;;;;;;1.60;1.40;;;19.00;1.00;;;;;;8355143;28;20197;-68
2023/10/21 11:02:20;;;;;;;1.97;1.70;;;19.10;1.00;;;;;;8359435;28;20235;-70
2023/10/21 11:06:23;;;;;;;1.60;1.47;;;19.10;1.00;;;;;;8354973;28;20234;-69
2023/10/21 11:10:25;;;;;;;2.90;1.60;;;19.10;1.00;;;;;;8371162;28;20196;-70
2023/10/21 11:14:27;;;;;;;1.87;1.53;;;19.20;1.00;;;;;;8357670;28;20217;-67
2023/10/21 11:18:28;;;;;;;2.03;1.50;;;19.20;1.00;;;;;;8360070;28;20189;-67
2023/10/21 11:22:29;;;;;;;2.97;1.50;;;19.30;1.00;;;;;;8353711;28;20185;-69
2023/10/21 11:26:30;;;;;;;2.50;1.47;;;19.30;1.00;;;;;;8372619;28;20184;-66
2023/10/21 11:30:31;;;;;;;2.43;1.40;;;19.40;1.00;;;;;;8356710;28;20421;-66
2023/10/21 11:34:32;;;;;;;3.27;1.90;;;19.50;1.00;;;;;;8359540;28;20240;-67
2023/10/21 11:38:33;;;;;;;2.07;1.77;;;19.40;1.00;;;;;;8354618;28;20196;-65
2023/10/21 11:42:35;;;;;;;2.63;1.60;;;19.50;1.00;;;;;;8355980;28;20458;-67
2023/10/21 11:46:39;;;;;;;2.60;1.80;;;19.50;1.00;;;;;;8355096;28;20181;-65
2023/10/21 11:50:42;;;;;;;4.47;2.07;;;19.50;1.00;;;;;;8355046;28;20188;-68
2023/10/21 11:55:19;;;;;;;2.90;1.93;;;19.50;1.00;;;;;;8372445;28;20235;-63
2023/10/21 12:41:27;;;;;;;2.03;1.80;;;19.70;1.00;;;;;;8363836;28;20193;-67
2023/10/21 12:45:34;;;;;;;2.70;1.80;;;19.80;1.00;;;;;;8361735;28;20359;-67
2023/10/21 12:49:36;;;;;;;2.00;1.63;;;19.70;1.00;;;;;;8360896;28;20224;-68
2023/10/21 12:53:37;;;;;;;2.50;1.60;;;19.80;1.00;;;;;;8357839;28;20217;-67
2023/10/21 12:57:39;;;;;;;1.97;1.73;;;19.80;1.00;;;;;;8360469;28;20216;-66
2023/10/21 13:01:39;;;;;;;2.27;1.80;;;19.80;1.00;;;;;;8364339;28;20202;-67
2023/10/21 13:05:43;;;;;;;3.93;1.60;;;19.80;1.00;;;;;;8362929;28;20185;-67
2023/10/21 13:09:44;;;;;;;2.43;1.80;;;19.80;1.00;;;;;;8375143;28;20235;-66
2023/10/21 13:13:45;;;;;;;2.33;1.90;;;19.70;1.00;;;;;;8367521;28;20206;-68
2023/10/21 13:17:46;;;;;;;1.90;1.70;;;19.70;1.00;;;;;;8362530;28;20268;-66
2023/10/21 13:21:48;;;;;;;2.80;1.87;;;19.70;1.00;;;;;;8359317;28;20335;-68
2023/10/21 13:25:49;;;;;;;2.43;1.80;;;19.70;1.00;;;;;;8364986;28;20193;-67
2023/10/21 13:29:50;;;;;;;1.83;1.63;;;19.70;1.00;;;;;;8359959;28;20244;-67
2023/10/21 13:33:51;;;;;;;2.13;1.77;;;19.60;1.00;;;;;;8358197;28;20205;-67
2023/10/21 13:37:52;;;;;;;2.70;1.80;;;19.70;1.00;;;;;;8359687;28;20189;-66
2023/10/21 13:41:52;;;;;;;2.20;1.47;;;19.70;1.00;;;;;;8357132;28;20183;-66
2023/10/21 13:45:53;;;;;;;2.10;1.70;;;19.70;1.00;;;;;;8355754;28;20191;-67
2023/10/21 13:49:57;;;;;;;1.90;1.70;;;19.70;1.00;;;;;;8356379;28;20185;-67
2023/10/21 13:53:58;;;;;;;1.50;1.40;;;19.70;1.00;;;;;;8362058;28;20206;-68
2023/10/21 13:57:59;;;;;;;2.10;1.60;;;19.60;1.00;;;;;;8356759;28;20204;-66
2023/10/21 14:02:00;;;;;;;2.73;1.70;;;19.60;1.00;;;;;;8363627;28;20280;-66
2023/10/21 14:06:04;;;;;;;1.20;1.10;;;19.60;1.00;;;;;;8360712;28;20192;-67
2023/10/21 14:10:07;;;;;;;2.40;1.40;;;19.50;1.00;;;;;;8363809;28;20194;-69
2023/10/21 14:14:10;;;;;;;1.43;1.13;;;19.50;1.00;;;;;;8360930;28;20371;-65
2023/10/21 14:18:11;;;;;;;1.20;1.10;;;19.40;1.00;;;;;;8361221;28;20271;-67
2023/10/21 14:22:11;;;;;;;1.53;1.37;;;19.30;1.00;;;;;;8363687;28;20259;-67
2023/10/21 14:26:12;;;;;;;1.70;1.30;;;19.30;1.00;;;;;;8356278;28;20276;-67
2023/10/21 14:30:13;;;;;;;1.73;1.30;;;19.20;1.00;;;;;;8361128;28;20296;-67
2023/10/21 14:34:17;;;;;;;2.03;1.73;;;19.10;1.00;;;;;;8355528;28;20212;-68
2023/10/21 14:38:20;;;;;;;2.60;1.40;;;19.00;1.00;;;;;;8355701;28;20191;-68
2023/10/21 14:42:20;;;;;;;1.20;1.00;;;18.90;1.00;;;;;;8353784;28;20220;-68
2023/10/21 14:46:22;;;;;;;2.73;1.40;;;18.80;1.00;;;;;;8360280;28;20185;-67
2023/10/21 14:50:23;;;;;;;1.23;1.10;;;18.70;1.00;;;;;;8359131;28;20212;-66
2023/10/21 14:54:25;;;;;;;2.53;1.27;;;18.60;1.00;;;;;;8361954;28;20236;-66
2023/10/21 14:58:26;;;;;;;1.40;1.30;;;18.50;1.00;;;;;;8354802;28;20247;-67
2023/10/21 15:02:27;;;;;;;1.90;1.33;;;18.30;1.00;;;;;;8326366;28;20205;-66
2023/10/21 15:06:30;;;;;;;1.80;1.50;;;18.10;1.00;;;;;;8321275;28;20182;-67
2023/10/21 15:10:34;;;;;;;1.77;1.23;;;18.00;1.00;;;;;;8324381;28;20180;-67
2023/10/21 15:14:36;;;;;;;1.37;1.10;;;17.70;1.00;;;;;;8322274;28;20202;-67
2023/10/21 15:18:37;;;;;;;1.20;1.00;;;17.50;1.00;;;;;;8323247;28;20244;-66
2023/10/21 15:22:42;;;;;;;1.37;1.10;;;17.40;1.00;;;;;;8322565;28;20182;-67
2023/10/21 15:26:43;;;;;;;2.00;1.40;;;17.20;1.00;;;;;;8320538;28;20182;-67
2023/10/21 15:30:44;;;;;;;1.30;1.20;;;16.90;1.00;;;;;;8321969;28;20244;-67
2023/10/21 15:34:49;;;;;;;1.70;1.40;;;16.70;1.00;;;;;;8324125;28;20224;-67
2023/10/21 15:38:52;;;;;;;1.80;1.27;;;16.40;1.00;;;;;;8337357;28;20277;-67
2023/10/21 15:42:53;;;;;;;2.47;1.43;;;16.10;1.00;;;;;;8336641;28;20190;-66
2023/10/21 15:46:55;;;;;;;1.90;1.50;;;15.80;19.60;;;;;;8321761;28;20197;-67
2023/10/21 15:51:10;;;;;;;2.10;1.50;;;15.50;90.70;;;;;;8328304;28;20197;-66
2023/10/21 15:55:10;;;;;;;3.93;1.40;;;15.10;99.90;;;;;;8326669;28;20210;-63
2023/10/21 15:59:11;;;;;;;2.00;1.20;;;14.80;99.90;;;;;;8323000;28;20233;-64
2023/10/21 16:03:12;;;;;;;1.80;1.70;;;14.60;99.90;;;;;;8325978;28;20490;-63
2023/10/21 16:07:14;;;;;;;2.23;1.60;;;14.30;99.90;;;;;;8329539;28;20181;-63
2023/10/21 16:11:15;;;;;;;2.63;1.50;;;14.00;99.90;;;;;;8322043;28;20185;-64
2023/10/21 16:15:16;;;;;;;2.70;1.60;;;13.80;1.00;;;;;;8324920;28;20198;-62
2023/10/21 16:19:17;;;;;;;3.20;1.77;;;13.60;1.00;;;;;;8313996;28;20235;-64
2023/10/21 16:23:18;;;;;;;1.73;1.57;;;13.40;1.00;;;;;;8319974;28;20193;-62
2023/10/21 16:27:19;;;;;;;2.03;1.40;;;13.20;98.70;;;;;;8318785;28;20186;-61
2023/10/21 16:31:19;;;;;;;3.37;1.70;;;13.00;99.90;;;;;;8323504;28;20186;-63
2023/10/21 16:35:20;;;;;;;7.07;4.63;;;12.90;99.90;;;;;;8323188;28;20740;-63
2023/10/21 16:39:21;;;;;;;50.27;30.03;;;12.70;1.00;;;;;;8325577;28;20291;-62
2023/10/21 16:43:22;;;;;;;59.10;37.00;;;12.70;99.90;;;;;;8322223;28;20549;-62
2023/10/21 16:47:23;;;;;;;57.23;37.93;;;12.60;1.00;;;;;;8323235;28;20189;-62
2023/10/21 16:51:24;;;;;;;37.23;24.03;;;12.50;1.00;;;;;;8320525;28;20623;-63
2023/10/21 16:55:24;;;;;;;15.27;10.80;;;12.30;1.00;;;;;;8319093;28;20241;-64
2023/10/21 16:59:25;;;;;;;7.83;5.60;;;12.10;99.90;;;;;;8328062;28;20259;-61
2023/10/21 17:03:26;;;;;;;4.13;3.30;;;11.90;99.90;;;;;;8320576;28;20182;-62
2023/10/21 17:07:28;;;;;;;3.17;2.47;;;11.80;45.30;;;;;;8322243;28;20189;-60
2023/10/21 17:11:29;;;;;;;4.33;3.60;;;11.60;1.00;;;;;;8322115;28;20193;-61
2023/10/21 17:15:30;;;;;;;13.67;9.97;;;11.60;99.90;;;;;;8325189;28;20211;-63
2023/10/21 17:19:31;;;;;;;26.97;14.87;;;11.50;1.00;;;;;;8328709;28;20201;-61
2023/10/21 17:23:32;;;;;;;15.87;10.00;;;11.50;1.00;;;;;;8331152;28;20189;-63
2023/10/21 17:27:32;;;;;;;9.33;6.43;;;11.40;1.00;;;;;;8329331;28;20200;-62
2023/10/21 17:31:34;;;;;;;5.17;3.70;;;11.30;95.70;;;;;;8326465;28;20271;-63
2023/10/21 17:35:34;;;;;;;4.23;2.67;;;11.20;32.20;;;;;;8326567;28;20217;-63
2023/10/21 17:39:35;;;;;;;3.77;2.60;;;11.10;99.90;;;;;;8325536;28;20178;-62
2023/10/21 17:43:36;;;;;;;4.03;2.30;;;11.10;1.00;;;;;;8326434;28;20194;-61
2023/10/21 17:47:37;;;;;;;3.73;2.23;;;11.10;99.90;;;;;;8342600;28;20186;-63
2023/10/21 17:51:38;;;;;;;3.53;2.40;;;11.10;99.90;;;;;;8326557;28;20419;-62
2023/10/21 17:55:41;;;;;;;4.10;2.50;;;11.20;99.90;;;;;;8324520;28;20298;-63
2023/10/21 17:59:41;;;;;;;4.17;2.43;;;11.10;99.90;;;;;;8327549;28;20210;-63
2023/10/21 18:03:42;;;;;;;4.43;2.67;;;11.20;99.90;;;;;;8327751;28;20212;-62
2023/10/21 18:07:43;;;;;;;2.60;2.40;;;11.20;99.90;;;;;;8325507;28;20252;-62
2023/10/21 18:11:45;;;;;;;3.03;2.50;;;11.30;99.90;;;;;;8331940;28;20178;-63
2023/10/21 18:15:46;;;;;;;3.23;2.50;;;11.30;99.90;;;;;;8332336;28;20229;-63
2023/10/21 18:19:46;;;;;;;3.23;2.70;;;11.30;99.90;;;;;;8328575;28;20182;-64
2023/10/21 18:23:47;;;;;;;6.10;3.00;;;11.30;99.90;;;;;;8323377;28;20190;-64
2023/10/21 18:27:48;;;;;;;6.50;3.50;;;11.40;99.90;;;;;;8340185;28;20191;-62
2023/10/21 18:31:49;;;;;;;5.10;3.03;;;11.40;99.90;;;;;;8325168;28;20190;-62
2023/10/21 18:35:50;;;;;;;20.07;15.93;;;11.40;99.90;;;;;;8340986;28;20272;-69
2023/10/21 18:39:51;;;;;;;45.90;29.10;;;11.50;99.90;;;;;;8339237;28;20205;-67
2023/10/21 18:43:52;;;;;;;84.53;48.10;;;11.50;99.90;;;;;;8330847;28;20193;-66
2023/10/21 18:47:53;;;;;;;72.20;43.77;;;11.60;99.90;;;;;;8329740;28;20190;-69
2023/10/21 18:51:53;;;;;;;39.13;24.73;;;11.60;99.90;;;;;;8332109;28;20213;-68
2023/10/21 18:55:54;;;;;;;24.63;16.83;;;11.60;99.90;;;;;;8332825;28;20603;-68
2023/10/21 18:59:55;;;;;;;14.97;10.73;;;11.60;99.90;;;;;;8326024;28;20407;-68
2023/10/21 19:03:59;;;;;;;49.50;28.73;;;11.60;99.90;;;;;;8326707;28;20732;-67
2023/10/21 19:08:00;;;;;;;129.93;68.23;;;11.60;99.90;;;;;;8325321;28;20238;-67
2023/10/21 19:12:03;;;;;;;180.57;95.13;;;11.60;99.90;;;;;;8326204;28;20213;-68
2023/10/21 19:16:04;;;;;;;75.67;53.30;;;11.60;99.90;;;;;;8325882;28;20264;-65
2023/10/21 19:20:07;;;;;;;58.50;42.30;;;11.60;99.90;;;;;;8331248;28;20244;-69
2023/10/21 19:24:08;;;;;;;48.93;34.83;;;11.50;99.90;;;;;;8324104;28;20190;-68
2023/10/21 19:28:09;;;;;;;45.17;32.13;;;11.50;99.90;;;;;;8328115;28;20189;-66
2023/10/21 19:32:10;;;;;;;38.47;27.27;;;11.50;99.90;;;;;;8326039;28;20340;-66
2023/10/21 19:36:12;;;;;;;32.33;23.10;;;11.40;99.90;;;;;;8324738;28;20213;-65
2023/10/21 19:40:13;;;;;;;23.43;15.80;;;11.40;99.90;;;;;;8329889;28;20444;-69
2023/10/21 19:44:16;;;;;;;14.87;10.30;;;11.40;99.90;;;;;;8325232;28;20222;-65
2023/10/21 19:48:17;;;;;;;9.80;7.30;;;11.40;99.90;;;;;;8322374;28;20188;-68
2023/10/21 19:52:20;;;;;;;6.60;5.30;;;11.40;99.90;;;;;;8332747;28;20185;-67
2023/10/21 19:56:21;;;;;;;8.17;5.73;;;11.40;99.90;;;;;;8322835;28;20213;-68
2023/10/21 20:00:22;;;;;;;14.43;10.47;;;11.40;99.90;;;;;;8324755;28;20266;-66
2023/10/21 20:04:23;;;;;;;27.03;15.43;;;11.50;99.90;;;;;;8321594;28;20235;-68
2023/10/21 20:08:24;;;;;;;65.17;34.63;;;11.60;99.90;;;;;;8326140;28;20185;-68
2023/10/21 20:12:25;;;;;;;71.70;39.20;;;11.60;99.90;;;;;;8327317;28;20255;-66
2023/10/21 20:16:26;;;;;;;65.33;36.40;;;11.60;99.90;;;;;;8321274;28;20312;-69
2023/10/21 20:20:27;;;;;;;55.57;31.87;;;11.60;99.90;;;;;;8328217;28;20578;-69
2023/10/21 20:24:28;;;;;;;34.30;21.87;;;11.60;99.90;;;;;;8324928;28;20296;-69
2023/10/21 20:28:29;;;;;;;24.03;15.67;;;11.60;99.90;;;;;;8325410;28;20194;-67
2023/10/21 20:32:29;;;;;;;20.80;12.90;;;11.60;99.90;;;;;;8326445;28;20217;-66
2023/10/21 20:36:31;;;;;;;30.33;19.80;;;11.50;99.90;;;;;;8322258;28;20217;-68
2023/10/21 20:40:32;;;;;;;48.73;31.60;;;11.50;99.90;;;;;;8325283;28;20192;-67
2023/10/21 20:44:33;;;;;;;96.53;60.83;;;11.50;99.90;;;;;;8320908;28;20182;-67
2023/10/21 20:48:40;;;;;;;77.10;49.43;;;11.50;99.90;;;;;;8323182;28;20213;-68
2023/10/21 20:52:44;;;;;;;77.93;51.90;;;11.50;99.90;;;;;;8331568;28;20253;-67
2023/10/21 20:56:46;;;;;;;89.90;57.83;;;11.50;99.90;;;;;;8331765;28;20203;-68
2023/10/21 21:00:47;;;;;;;75.33;50.77;;;11.60;99.90;;;;;;8334552;28;20310;-67
2023/10/21 21:04:48;;;;;;;59.17;39.87;;;11.60;99.90;;;;;;8330000;28;20430;-67
2023/10/21 21:08:49;;;;;;;44.57;31.47;;;11.60;99.90;;;;;;8330734;28;20224;-69
2023/10/21 21:12:53;;;;;;;64.70;42.07;;;11.60;99.90;;;;;;8328171;28;20189;-61
2023/10/21 21:16:54;;;;;;;54.70;37.80;;;11.50;99.90;;;;;;8331737;28;20182;-63
2023/10/21 21:20:58;;;;;;;63.87;46.20;;;11.50;99.90;;;;;;8329455;28;20190;-62
2023/10/21 21:24:59;;;;;;;62.13;42.13;;;11.40;99.90;;;;;;8323847;28;20207;-63
2023/10/21 21:29:00;;;;;;;49.10;33.97;;;11.40;99.90;;;;;;8328212;28;20186;-63
2023/10/21 21:33:01;;;;;;;40.60;28.73;;;11.40;99.90;;;;;;8328523;28;20184;-61